sensor_id;sensor_type;location;lat;lon;timestamp;P1;durP1;ratioP1;P2;durP2;ratioP2
75499;SDS011;64076;51.466;7.260;2022-11-20T00:01:24;17.35;;;11.13;;
75499;SDS011;64076;51.466;7.260;2022-11-20T00:03:51;14.82;;;11.55;;
75499;SDS011;64076;51.466;7.260;2022-11-20T00:06:18;15.60;;;11.52;;
75499;SDS011;64076;51.466;7.260;2022-11-20T00:08:45;16.60;;;11.52;;
75499;SDS011;64076;51.466;7.260;2022-11-20T00:11:12;14.93;;;11.10;;
75499;SDS011;64076;51.466;7.260;2022-11-20T00:13:42;16.48;;;12.27;;
75499;SDS011;64076;51.466;7.260;2022-11-20T00:16:09;15.15;;;11.45;;
75499;SDS011;64076;51.466;7.260;2022-11-20T00:18:38;16.13;;;11.20;;
75499;SDS011;64076;51.466;7.260;2022-11-20T00:21:07;17.20;;;12.13;;
75499;SDS011;64076;51.466;7.260;2022-11-20T00:23:42;14.93;;;11.07;;
75499;SDS011;64076;51.466;7.260;2022-11-20T00:26:09;14.83;;;11.30;;
75499;SDS011;64076;51.466;7.260;2022-11-20T00:28:37;17.90;;;11.77;;
75499;SDS011;64076;51.466;7.260;2022-11-20T00:31:05;14.20;;;11.80;;
75499;SDS011;64076;51.466;7.260;2022-11-20T00:33:33;15.88;;;12.13;;
75499;SDS011;64076;51.466;7.260;2022-11-20T00:36:03;15.95;;;12.13;;
75499;SDS011;64076;51.466;7.260;2022-11-20T00:38:33;14.07;;;10.57;;
75499;SDS011;64076;51.466;7.260;2022-11-20T00:41:00;17.38;;;11.75;;
75499;SDS011;64076;51.466;7.260;2022-11-20T00:43:27;16.33;;;11.95;;
75499;SDS011;64076;51.466;7.260;2022-11-20T00:45:56;16.45;;;12.05;;
75499;SDS011;64076;51.466;7.260;2022-11-20T00:48:25;17.17;;;12.10;;
75499;SDS011;64076;51.466;7.260;2022-11-20T00:50:51;14.52;;;11.70;;
75499;SDS011;64076;51.466;7.260;2022-11-20T00:53:17;16.13;;;11.68;;
75499;SDS011;64076;51.466;7.260;2022-11-20T00:55:43;15.90;;;11.77;;
75499;SDS011;64076;51.466;7.260;2022-11-20T00:58:16;15.35;;;11.40;;
75499;SDS011;64076;51.466;7.260;2022-11-20T01:00:42;19.00;;;11.63;;
75499;SDS011;64076;51.466;7.260;2022-11-20T01:03:07;13.55;;;11.38;;
75499;SDS011;64076;51.466;7.260;2022-11-20T01:05:34;18.23;;;12.20;;
75499;SDS011;64076;51.466;7.260;2022-11-20T01:08:00;16.90;;;11.98;;
75499;SDS011;64076;51.466;7.260;2022-11-20T01:10:26;15.13;;;11.30;;
75499;SDS011;64076;51.466;7.260;2022-11-20T01:12:51;16.63;;;11.67;;
75499;SDS011;64076;51.466;7.260;2022-11-20T01:15:37;15.80;;;11.20;;
75499;SDS011;64076;51.466;7.260;2022-11-20T01:18:02;15.07;;;11.20;;
75499;SDS011;64076;51.466;7.260;2022-11-20T01:20:28;16.95;;;12.07;;
75499;SDS011;64076;51.466;7.260;2022-11-20T01:22:53;15.40;;;11.50;;
75499;SDS011;64076;51.466;7.260;2022-11-20T01:25:19;15.27;;;11.35;;
75499;SDS011;64076;51.466;7.260;2022-11-20T01:27:44;14.77;;;11.50;;
75499;SDS011;64076;51.466;7.260;2022-11-20T01:30:10;14.53;;;11.10;;
75499;SDS011;64076;51.466;7.260;2022-11-20T01:32:36;15.45;;;11.85;;
75499;SDS011;64076;51.466;7.260;2022-11-20T01:35:02;15.27;;;11.77;;
75499;SDS011;64076;51.466;7.260;2022-11-20T01:37:27;16.08;;;11.30;;
75499;SDS011;64076;51.466;7.260;2022-11-20T01:39:54;15.90;;;11.25;;
75499;SDS011;64076;51.466;7.260;2022-11-20T01:42:19;16.87;;;11.40;;
75499;SDS011;64076;51.466;7.260;2022-11-20T01:45:42;17.00;;;11.65;;
75499;SDS011;64076;51.466;7.260;2022-11-20T01:48:07;15.73;;;11.07;;
75499;SDS011;64076;51.466;7.260;2022-11-20T01:50:33;15.23;;;11.67;;
75499;SDS011;64076;51.466;7.260;2022-11-20T01:53:03;15.70;;;11.38;;
75499;SDS011;64076;51.466;7.260;2022-11-20T01:55:36;16.23;;;11.47;;
75499;SDS011;64076;51.466;7.260;2022-11-20T01:58:08;16.80;;;11.60;;
75499;SDS011;64076;51.466;7.260;2022-11-20T02:00:33;15.43;;;11.70;;
75499;SDS011;64076;51.466;7.260;2022-11-20T02:03:04;13.23;;;11.13;;
75499;SDS011;64076;51.466;7.260;2022-11-20T02:05:51;14.63;;;11.35;;
75499;SDS011;64076;51.466;7.260;2022-11-20T02:08:25;16.17;;;10.65;;
75499;SDS011;64076;51.466;7.260;2022-11-20T02:10:51;16.80;;;11.03;;
75499;SDS011;64076;51.466;7.260;2022-11-20T02:13:16;14.18;;;11.48;;
75499;SDS011;64076;51.466;7.260;2022-11-20T02:16:01;16.97;;;11.00;;
75499;SDS011;64076;51.466;7.260;2022-11-20T02:18:28;15.38;;;10.85;;
75499;SDS011;64076;51.466;7.260;2022-11-20T02:21:02;16.55;;;11.20;;
75499;SDS011;64076;51.466;7.260;2022-11-20T02:24:01;13.43;;;10.48;;
75499;SDS011;64076;51.466;7.260;2022-11-20T02:26:28;14.88;;;11.38;;
75499;SDS011;64076;51.466;7.260;2022-11-20T02:28:56;15.50;;;10.30;;
75499;SDS011;64076;51.466;7.260;2022-11-20T02:31:24;14.70;;;10.82;;
75499;SDS011;64076;51.466;7.260;2022-11-20T02:33:56;14.52;;;10.75;;
75499;SDS011;64076;51.466;7.260;2022-11-20T02:36:22;15.03;;;10.50;;
75499;SDS011;64076;51.466;7.260;2022-11-20T02:38:51;14.15;;;10.65;;
75499;SDS011;64076;51.466;7.260;2022-11-20T02:41:17;13.98;;;10.77;;
75499;SDS011;64076;51.466;7.260;2022-11-20T02:43:43;13.87;;;10.97;;
75499;SDS011;64076;51.466;7.260;2022-11-20T02:46:08;15.27;;;10.60;;
75499;SDS011;64076;51.466;7.260;2022-11-20T02:48:34;12.70;;;10.47;;
75499;SDS011;64076;51.466;7.260;2022-11-20T02:50:59;14.97;;;10.73;;
75499;SDS011;64076;51.466;7.260;2022-11-20T02:53:25;13.27;;;10.32;;
75499;SDS011;64076;51.466;7.260;2022-11-20T02:55:51;12.45;;;10.25;;
75499;SDS011;64076;51.466;7.260;2022-11-20T02:58:17;14.23;;;11.13;;
75499;SDS011;64076;51.466;7.260;2022-11-20T03:00:42;14.97;;;10.97;;
75499;SDS011;64076;51.466;7.260;2022-11-20T03:03:08;14.25;;;10.77;;
75499;SDS011;64076;51.466;7.260;2022-11-20T03:05:33;15.43;;;11.70;;
75499;SDS011;64076;51.466;7.260;2022-11-20T03:07:59;13.38;;;10.10;;
75499;SDS011;64076;51.466;7.260;2022-11-20T03:10:25;13.00;;;10.07;;
75499;SDS011;64076;51.466;7.260;2022-11-20T03:12:54;15.00;;;9.87;;
75499;SDS011;64076;51.466;7.260;2022-11-20T03:15:20;12.50;;;10.13;;
75499;SDS011;64076;51.466;7.260;2022-11-20T03:17:47;15.05;;;10.90;;
75499;SDS011;64076;51.466;7.260;2022-11-20T03:20:12;13.53;;;10.47;;
75499;SDS011;64076;51.466;7.260;2022-11-20T03:22:38;12.70;;;10.25;;
75499;SDS011;64076;51.466;7.260;2022-11-20T03:25:03;12.57;;;9.70;;
75499;SDS011;64076;51.466;7.260;2022-11-20T03:27:33;13.32;;;10.05;;
75499;SDS011;64076;51.466;7.260;2022-11-20T03:29:59;13.95;;;11.13;;
75499;SDS011;64076;51.466;7.260;2022-11-20T03:32:25;15.97;;;10.30;;
75499;SDS011;64076;51.466;7.260;2022-11-20T03:34:51;13.37;;;9.77;;
75499;SDS011;64076;51.466;7.260;2022-11-20T03:37:16;12.63;;;10.10;;
75499;SDS011;64076;51.466;7.260;2022-11-20T03:39:42;14.10;;;10.23;;
75499;SDS011;64076;51.466;7.260;2022-11-20T03:42:08;12.90;;;10.33;;
75499;SDS011;64076;51.466;7.260;2022-11-20T03:44:52;14.40;;;10.10;;
75499;SDS011;64076;51.466;7.260;2022-11-20T03:47:18;14.77;;;10.40;;
75499;SDS011;64076;51.466;7.260;2022-11-20T03:49:43;12.97;;;10.10;;
75499;SDS011;64076;51.466;7.260;2022-11-20T03:52:11;14.05;;;10.27;;
75499;SDS011;64076;51.466;7.260;2022-11-20T03:54:37;12.13;;;9.60;;
75499;SDS011;64076;51.466;7.260;2022-11-20T03:57:02;12.60;;;10.07;;
75499;SDS011;64076;51.466;7.260;2022-11-20T03:59:28;14.23;;;10.38;;
75499;SDS011;64076;51.466;7.260;2022-11-20T04:01:53;13.07;;;10.07;;
75499;SDS011;64076;51.466;7.260;2022-11-20T04:04:19;11.90;;;9.43;;
75499;SDS011;64076;51.466;7.260;2022-11-20T04:06:45;12.45;;;9.95;;
75499;SDS011;64076;51.466;7.260;2022-11-20T04:09:10;12.93;;;10.00;;
75499;SDS011;64076;51.466;7.260;2022-11-20T04:11:36;14.15;;;9.80;;
75499;SDS011;64076;51.466;7.260;2022-11-20T04:14:05;13.57;;;10.00;;
75499;SDS011;64076;51.466;7.260;2022-11-20T04:16:36;13.88;;;9.82;;
75499;SDS011;64076;51.466;7.260;2022-11-20T04:19:03;12.25;;;9.82;;
75499;SDS011;64076;51.466;7.260;2022-11-20T04:21:31;13.52;;;10.35;;
75499;SDS011;64076;51.466;7.260;2022-11-20T04:23:57;12.17;;;9.90;;
75499;SDS011;64076;51.466;7.260;2022-11-20T04:26:24;12.40;;;10.25;;
75499;SDS011;64076;51.466;7.260;2022-11-20T04:28:52;12.65;;;10.10;;
75499;SDS011;64076;51.466;7.260;2022-11-20T04:31:19;12.25;;;9.57;;
75499;SDS011;64076;51.466;7.260;2022-11-20T04:33:46;12.03;;;9.43;;
75499;SDS011;64076;51.466;7.260;2022-11-20T04:36:13;12.75;;;9.85;;
75499;SDS011;64076;51.466;7.260;2022-11-20T04:38:40;13.25;;;10.32;;
75499;SDS011;64076;51.466;7.260;2022-11-20T04:41:06;12.63;;;10.40;;
75499;SDS011;64076;51.466;7.260;2022-11-20T04:43:36;12.77;;;10.30;;
75499;SDS011;64076;51.466;7.260;2022-11-20T04:46:01;12.75;;;9.77;;
75499;SDS011;64076;51.466;7.260;2022-11-20T04:48:27;10.63;;;9.53;;
75499;SDS011;64076;51.466;7.260;2022-11-20T04:50:54;12.95;;;9.93;;
75499;SDS011;64076;51.466;7.260;2022-11-20T04:53:20;11.83;;;10.17;;
75499;SDS011;64076;51.466;7.260;2022-11-20T04:55:46;12.70;;;9.93;;
75499;SDS011;64076;51.466;7.260;2022-11-20T04:58:12;12.85;;;9.65;;
75499;SDS011;64076;51.466;7.260;2022-11-20T05:00:38;13.35;;;10.15;;
75499;SDS011;64076;51.466;7.260;2022-11-20T05:03:04;11.60;;;9.43;;
75499;SDS011;64076;51.466;7.260;2022-11-20T05:05:30;14.18;;;10.32;;
75499;SDS011;64076;51.466;7.260;2022-11-20T05:07:56;11.97;;;9.73;;
75499;SDS011;64076;51.466;7.260;2022-11-20T05:10:22;12.25;;;10.30;;
75499;SDS011;64076;51.466;7.260;2022-11-20T05:12:49;13.38;;;10.13;;
75499;SDS011;64076;51.466;7.260;2022-11-20T05:15:14;12.07;;;10.30;;
75499;SDS011;64076;51.466;7.260;2022-11-20T05:17:40;11.87;;;9.80;;
75499;SDS011;64076;51.466;7.260;2022-11-20T05:20:05;12.85;;;9.50;;
75499;SDS011;64076;51.466;7.260;2022-11-20T05:22:32;13.57;;;9.55;;
75499;SDS011;64076;51.466;7.260;2022-11-20T05:24:57;12.77;;;9.53;;
75499;SDS011;64076;51.466;7.260;2022-11-20T05:27:23;13.10;;;10.40;;
75499;SDS011;64076;51.466;7.260;2022-11-20T05:29:48;12.87;;;9.60;;
75499;SDS011;64076;51.466;7.260;2022-11-20T05:32:14;11.80;;;9.93;;
75499;SDS011;64076;51.466;7.260;2022-11-20T05:34:39;14.77;;;10.17;;
75499;SDS011;64076;51.466;7.260;2022-11-20T05:37:05;13.50;;;10.07;;
75499;SDS011;64076;51.466;7.260;2022-11-20T05:39:30;12.25;;;9.82;;
75499;SDS011;64076;51.466;7.260;2022-11-20T05:41:56;13.07;;;9.87;;
75499;SDS011;64076;51.466;7.260;2022-11-20T05:44:40;12.85;;;9.70;;
75499;SDS011;64076;51.466;7.260;2022-11-20T05:47:05;14.40;;;9.60;;
75499;SDS011;64076;51.466;7.260;2022-11-20T05:49:31;12.33;;;9.73;;
75499;SDS011;64076;51.466;7.260;2022-11-20T05:51:57;13.53;;;9.63;;
75499;SDS011;64076;51.466;7.260;2022-11-20T05:54:22;13.07;;;10.13;;
75499;SDS011;64076;51.466;7.260;2022-11-20T05:56:48;12.10;;;9.90;;
75499;SDS011;64076;51.466;7.260;2022-11-20T05:59:13;14.93;;;9.93;;
75499;SDS011;64076;51.466;7.260;2022-11-20T06:01:39;11.77;;;9.88;;
75499;SDS011;64076;51.466;7.260;2022-11-20T06:04:04;12.47;;;10.13;;
75499;SDS011;64076;51.466;7.260;2022-11-20T06:06:30;12.97;;;10.20;;
75499;SDS011;64076;51.466;7.260;2022-11-20T06:08:55;10.68;;;9.52;;
75499;SDS011;64076;51.466;7.260;2022-11-20T06:11:23;13.17;;;9.93;;
75499;SDS011;64076;51.466;7.260;2022-11-20T06:13:49;12.98;;;10.43;;
75499;SDS011;64076;51.466;7.260;2022-11-20T06:16:16;12.15;;;10.30;;
75499;SDS011;64076;51.466;7.260;2022-11-20T06:18:43;12.53;;;9.20;;
75499;SDS011;64076;51.466;7.260;2022-11-20T06:21:10;11.73;;;9.80;;
75499;SDS011;64076;51.466;7.260;2022-11-20T06:23:43;12.80;;;10.00;;
75499;SDS011;64076;51.466;7.260;2022-11-20T06:26:13;11.23;;;9.40;;
75499;SDS011;64076;51.466;7.260;2022-11-20T06:28:43;12.75;;;9.38;;
75499;SDS011;64076;51.466;7.260;2022-11-20T06:31:10;11.73;;;9.60;;
75499;SDS011;64076;51.466;7.260;2022-11-20T06:33:37;12.88;;;10.10;;
75499;SDS011;64076;51.466;7.260;2022-11-20T06:36:03;13.40;;;10.27;;
75499;SDS011;64076;51.466;7.260;2022-11-20T06:38:29;13.55;;;10.57;;
75499;SDS011;64076;51.466;7.260;2022-11-20T06:40:55;11.10;;;9.30;;
75499;SDS011;64076;51.466;7.260;2022-11-20T06:43:21;13.23;;;10.40;;
75499;SDS011;64076;51.466;7.260;2022-11-20T06:45:53;12.30;;;9.55;;
75499;SDS011;64076;51.466;7.260;2022-11-20T06:48:20;12.68;;;10.10;;
75499;SDS011;64076;51.466;7.260;2022-11-20T06:50:46;11.30;;;9.43;;
75499;SDS011;64076;51.466;7.260;2022-11-20T06:53:15;12.35;;;10.15;;
75499;SDS011;64076;51.466;7.260;2022-11-20T06:55:47;11.20;;;9.37;;
75499;SDS011;64076;51.466;7.260;2022-11-20T06:58:13;12.30;;;9.27;;
75499;SDS011;64076;51.466;7.260;2022-11-20T07:00:40;12.65;;;10.10;;
75499;SDS011;64076;51.466;7.260;2022-11-20T07:03:07;10.98;;;9.73;;
75499;SDS011;64076;51.466;7.260;2022-11-20T07:05:33;17.33;;;10.03;;
75499;SDS011;64076;51.466;7.260;2022-11-20T07:07:59;13.20;;;9.73;;
75499;SDS011;64076;51.466;7.260;2022-11-20T07:10:25;11.85;;;9.38;;
75499;SDS011;64076;51.466;7.260;2022-11-20T07:12:51;14.73;;;10.10;;
75499;SDS011;64076;51.466;7.260;2022-11-20T07:15:18;13.10;;;10.40;;
75499;SDS011;64076;51.466;7.260;2022-11-20T07:17:44;13.15;;;9.80;;
75499;SDS011;64076;51.466;7.260;2022-11-20T07:20:10;11.67;;;9.97;;
75499;SDS011;64076;51.466;7.260;2022-11-20T07:22:35;11.65;;;9.70;;
75499;SDS011;64076;51.466;7.260;2022-11-20T07:25:01;12.87;;;10.30;;
75499;SDS011;64076;51.466;7.260;2022-11-20T07:27:28;10.52;;;8.95;;
75499;SDS011;64076;51.466;7.260;2022-11-20T07:29:54;12.18;;;10.23;;
75499;SDS011;64076;51.466;7.260;2022-11-20T07:32:20;12.00;;;9.77;;
75499;SDS011;64076;51.466;7.260;2022-11-20T07:34:46;11.38;;;9.25;;
75499;SDS011;64076;51.466;7.260;2022-11-20T07:37:12;12.27;;;9.70;;
75499;SDS011;64076;51.466;7.260;2022-11-20T07:39:38;12.33;;;9.47;;
75499;SDS011;64076;51.466;7.260;2022-11-20T07:42:03;11.73;;;9.43;;
75499;SDS011;64076;51.466;7.260;2022-11-20T07:44:30;10.88;;;9.50;;
75499;SDS011;64076;51.466;7.260;2022-11-20T07:46:56;12.23;;;9.73;;
75499;SDS011;64076;51.466;7.260;2022-11-20T07:49:21;11.30;;;9.00;;
75499;SDS011;64076;51.466;7.260;2022-11-20T07:51:49;12.07;;;9.27;;
75499;SDS011;64076;51.466;7.260;2022-11-20T07:54:15;11.15;;;9.57;;
75499;SDS011;64076;51.466;7.260;2022-11-20T07:56:41;11.00;;;9.77;;
75499;SDS011;64076;51.466;7.260;2022-11-20T07:59:06;11.10;;;9.07;;
75499;SDS011;64076;51.466;7.260;2022-11-20T08:01:32;11.05;;;9.38;;
75499;SDS011;64076;51.466;7.260;2022-11-20T08:03:57;10.33;;;9.27;;
75499;SDS011;64076;51.466;7.260;2022-11-20T08:06:23;11.37;;;8.70;;
75499;SDS011;64076;51.466;7.260;2022-11-20T08:08:49;13.18;;;10.05;;
75499;SDS011;64076;51.466;7.260;2022-11-20T08:11:15;12.05;;;9.88;;
75499;SDS011;64076;51.466;7.260;2022-11-20T08:13:59;12.52;;;9.50;;
75499;SDS011;64076;51.466;7.260;2022-11-20T08:16:40;11.90;;;9.17;;
75499;SDS011;64076;51.466;7.260;2022-11-20T08:19:06;11.23;;;9.73;;
75499;SDS011;64076;51.466;7.260;2022-11-20T08:21:32;12.32;;;10.10;;
75499;SDS011;64076;51.466;7.260;2022-11-20T08:23:58;11.77;;;9.53;;
75499;SDS011;64076;51.466;7.260;2022-11-20T08:26:24;11.18;;;9.95;;
75499;SDS011;64076;51.466;7.260;2022-11-20T08:28:54;12.25;;;9.73;;
75499;SDS011;64076;51.466;7.260;2022-11-20T08:31:23;12.32;;;9.70;;
75499;SDS011;64076;51.466;7.260;2022-11-20T08:33:50;13.07;;;9.00;;
75499;SDS011;64076;51.466;7.260;2022-11-20T08:36:16;11.30;;;8.98;;
75499;SDS011;64076;51.466;7.260;2022-11-20T08:38:46;11.73;;;9.23;;
75499;SDS011;64076;51.466;7.260;2022-11-20T08:41:16;12.55;;;9.40;;
75499;SDS011;64076;51.466;7.260;2022-11-20T08:43:59;11.55;;;9.40;;
75499;SDS011;64076;51.466;7.260;2022-11-20T08:46:37;10.17;;;8.73;;
75499;SDS011;64076;51.466;7.260;2022-11-20T08:49:06;11.27;;;8.98;;
75499;SDS011;64076;51.466;7.260;2022-11-20T08:51:36;11.88;;;9.43;;
75499;SDS011;64076;51.466;7.260;2022-11-20T08:54:02;9.80;;;8.30;;
75499;SDS011;64076;51.466;7.260;2022-11-20T08:56:28;11.55;;;9.05;;
75499;SDS011;64076;51.466;7.260;2022-11-20T08:58:53;11.67;;;9.03;;
75499;SDS011;64076;51.466;7.260;2022-11-20T09:01:19;11.43;;;9.10;;
75499;SDS011;64076;51.466;7.260;2022-11-20T09:03:46;10.73;;;8.55;;
75499;SDS011;64076;51.466;7.260;2022-11-20T09:06:11;11.60;;;8.80;;
75499;SDS011;64076;51.466;7.260;2022-11-20T09:08:38;10.07;;;8.43;;
75499;SDS011;64076;51.466;7.260;2022-11-20T09:11:04;10.23;;;8.52;;
75499;SDS011;64076;51.466;7.260;2022-11-20T09:13:30;10.18;;;8.23;;
75499;SDS011;64076;51.466;7.260;2022-11-20T09:15:58;10.52;;;8.23;;
75499;SDS011;64076;51.466;7.260;2022-11-20T09:18:25;10.60;;;8.10;;
75499;SDS011;64076;51.466;7.260;2022-11-20T09:20:51;9.23;;;8.00;;
75499;SDS011;64076;51.466;7.260;2022-11-20T09:23:21;9.45;;;8.13;;
75499;SDS011;64076;51.466;7.260;2022-11-20T09:25:47;9.23;;;7.33;;
75499;SDS011;64076;51.466;7.260;2022-11-20T09:28:12;10.27;;;8.57;;
75499;SDS011;64076;51.466;7.260;2022-11-20T09:30:38;11.63;;;8.97;;
75499;SDS011;64076;51.466;7.260;2022-11-20T09:33:04;10.27;;;8.10;;
75499;SDS011;64076;51.466;7.260;2022-11-20T09:35:31;10.70;;;8.00;;
75499;SDS011;64076;51.466;7.260;2022-11-20T09:37:57;10.20;;;8.10;;
75499;SDS011;64076;51.466;7.260;2022-11-20T09:40:24;10.07;;;8.73;;
75499;SDS011;64076;51.466;7.260;2022-11-20T09:54:21;10.82;;;8.25;;
75499;SDS011;64076;51.466;7.260;2022-11-20T09:56:53;9.90;;;8.07;;
75499;SDS011;64076;51.466;7.260;2022-11-20T10:02:16;9.45;;;7.40;;
75499;SDS011;64076;51.466;7.260;2022-11-20T10:04:56;9.52;;;7.82;;
75499;SDS011;64076;51.466;7.260;2022-11-20T10:07:29;9.65;;;7.47;;
75499;SDS011;64076;51.466;7.260;2022-11-20T10:10:01;9.20;;;7.20;;
75499;SDS011;64076;51.466;7.260;2022-11-20T10:12:31;9.93;;;8.00;;
75499;SDS011;64076;51.466;7.260;2022-11-20T10:18:41;9.35;;;7.32;;
75499;SDS011;64076;51.466;7.260;2022-11-20T10:21:29;9.80;;;7.70;;
75499;SDS011;64076;51.466;7.260;2022-11-20T10:24:10;9.23;;;7.45;;
75499;SDS011;64076;51.466;7.260;2022-11-20T10:30:07;9.43;;;7.15;;
75499;SDS011;64076;51.466;7.260;2022-11-20T10:32:41;9.43;;;7.35;;
75499;SDS011;64076;51.466;7.260;2022-11-20T10:38:02;7.57;;;6.32;;
75499;SDS011;64076;51.466;7.260;2022-11-20T10:40:41;9.80;;;7.10;;
75499;SDS011;64076;51.466;7.260;2022-11-20T10:43:10;8.85;;;7.15;;
75499;SDS011;64076;51.466;7.260;2022-11-20T10:46:05;10.13;;;7.07;;
75499;SDS011;64076;51.466;7.260;2022-11-20T10:48:39;8.40;;;6.57;;
75499;SDS011;64076;51.466;7.260;2022-11-20T10:56:35;9.75;;;7.40;;
75499;SDS011;64076;51.466;7.260;2022-11-20T11:02:24;8.93;;;6.73;;
75499;SDS011;64076;51.466;7.260;2022-11-20T11:07:36;7.82;;;6.25;;
75499;SDS011;64076;51.466;7.260;2022-11-20T11:10:05;8.73;;;6.05;;
75499;SDS011;64076;51.466;7.260;2022-11-20T11:12:43;7.40;;;5.93;;
75499;SDS011;64076;51.466;7.260;2022-11-20T11:15:13;7.20;;;6.00;;
75499;SDS011;64076;51.466;7.260;2022-11-20T11:17:49;8.60;;;6.25;;
75499;SDS011;64076;51.466;7.260;2022-11-20T11:20:16;7.23;;;5.53;;
75499;SDS011;64076;51.466;7.260;2022-11-20T11:28:01;7.57;;;5.85;;
75499;SDS011;64076;51.466;7.260;2022-11-20T11:30:27;7.32;;;6.07;;
75499;SDS011;64076;51.466;7.260;2022-11-20T11:35:55;7.80;;;5.78;;
75499;SDS011;64076;51.466;7.260;2022-11-20T11:38:34;7.95;;;5.95;;
75499;SDS011;64076;51.466;7.260;2022-11-20T11:41:01;7.25;;;5.50;;
75499;SDS011;64076;51.466;7.260;2022-11-20T11:43:32;6.97;;;5.25;;
75499;SDS011;64076;51.466;7.260;2022-11-20T11:46:24;7.13;;;5.50;;
75499;SDS011;64076;51.466;7.260;2022-11-20T11:51:38;6.63;;;5.18;;
75499;SDS011;64076;51.466;7.260;2022-11-20T11:54:20;6.47;;;5.00;;
75499;SDS011;64076;51.466;7.260;2022-11-20T11:56:49;6.97;;;4.95;;
75499;SDS011;64076;51.466;7.260;2022-11-20T11:59:21;6.63;;;5.43;;
75499;SDS011;64076;51.466;7.260;2022-11-20T12:02:04;7.13;;;5.05;;
75499;SDS011;64076;51.466;7.260;2022-11-20T12:04:55;7.53;;;5.32;;
75499;SDS011;64076;51.466;7.260;2022-11-20T12:09:52;6.70;;;4.90;;
75499;SDS011;64076;51.466;7.260;2022-11-20T12:12:27;6.65;;;5.07;;
75499;SDS011;64076;51.466;7.260;2022-11-20T12:15:00;7.28;;;5.60;;
75499;SDS011;64076;51.466;7.260;2022-11-20T12:17:27;5.82;;;5.07;;
75499;SDS011;64076;51.466;7.260;2022-11-20T12:19:52;7.63;;;5.53;;
75499;SDS011;64076;51.466;7.260;2022-11-20T12:30:55;6.55;;;5.38;;
75499;SDS011;64076;51.466;7.260;2022-11-20T12:36:27;5.67;;;4.50;;
75499;SDS011;64076;51.466;7.260;2022-11-20T12:47:39;6.78;;;5.35;;
75499;SDS011;64076;51.466;7.260;2022-11-20T13:01:58;6.05;;;4.93;;
75499;SDS011;64076;51.466;7.260;2022-11-20T13:04:40;7.77;;;5.07;;
75499;SDS011;64076;51.466;7.260;2022-11-20T13:07:13;7.18;;;5.53;;
75499;SDS011;64076;51.466;7.260;2022-11-20T13:09:43;7.35;;;5.65;;
75499;SDS011;64076;51.466;7.260;2022-11-20T13:12:14;6.55;;;5.43;;
75499;SDS011;64076;51.466;7.260;2022-11-20T13:15:02;7.55;;;5.40;;
75499;SDS011;64076;51.466;7.260;2022-11-20T13:20:14;6.60;;;5.07;;
75499;SDS011;64076;51.466;7.260;2022-11-20T13:22:46;7.82;;;5.45;;
75499;SDS011;64076;51.466;7.260;2022-11-20T13:27:55;7.10;;;5.85;;
75499;SDS011;64076;51.466;7.260;2022-11-20T13:30:23;8.27;;;5.70;;
75499;SDS011;64076;51.466;7.260;2022-11-20T13:32:54;7.45;;;5.90;;
75499;SDS011;64076;51.466;7.260;2022-11-20T13:35:25;8.07;;;5.90;;
75499;SDS011;64076;51.466;7.260;2022-11-20T13:37:59;7.35;;;5.32;;
75499;SDS011;64076;51.466;7.260;2022-11-20T13:40:28;6.40;;;5.28;;
75499;SDS011;64076;51.466;7.260;2022-11-20T13:45:23;8.32;;;5.90;;
75499;SDS011;64076;51.466;7.260;2022-11-20T13:47:51;7.13;;;5.40;;
75499;SDS011;64076;51.466;7.260;2022-11-20T13:50:18;8.43;;;6.00;;
75499;SDS011;64076;51.466;7.260;2022-11-20T13:55:54;6.43;;;5.35;;
75499;SDS011;64076;51.466;7.260;2022-11-20T13:58:27;6.45;;;4.97;;
75499;SDS011;64076;51.466;7.260;2022-11-20T14:01:19;7.43;;;5.70;;
75499;SDS011;64076;51.466;7.260;2022-11-20T14:03:50;8.73;;;5.70;;
75499;SDS011;64076;51.466;7.260;2022-11-20T14:08:52;8.57;;;5.97;;
75499;SDS011;64076;51.466;7.260;2022-11-20T14:11:19;8.23;;;5.70;;
75499;SDS011;64076;51.466;7.260;2022-11-20T14:16:23;6.93;;;5.20;;
75499;SDS011;64076;51.466;7.260;2022-11-20T14:18:50;8.88;;;6.03;;
75499;SDS011;64076;51.466;7.260;2022-11-20T14:21:29;8.30;;;5.90;;
75499;SDS011;64076;51.466;7.260;2022-11-20T14:24:04;7.32;;;5.72;;
75499;SDS011;64076;51.466;7.260;2022-11-20T14:26:31;8.88;;;6.25;;
75499;SDS011;64076;51.466;7.260;2022-11-20T14:28:57;8.07;;;6.17;;
75499;SDS011;64076;51.466;7.260;2022-11-20T14:31:24;9.13;;;5.85;;
75499;SDS011;64076;51.466;7.260;2022-11-20T14:33:54;10.13;;;7.22;;
75499;SDS011;64076;51.466;7.260;2022-11-20T14:36:23;8.68;;;6.50;;
75499;SDS011;64076;51.466;7.260;2022-11-20T14:38:50;8.82;;;6.65;;
75499;SDS011;64076;51.466;7.260;2022-11-20T14:41:23;9.03;;;6.20;;
75499;SDS011;64076;51.466;7.260;2022-11-20T14:43:54;8.05;;;5.82;;
75499;SDS011;64076;51.466;7.260;2022-11-20T14:46:22;9.07;;;6.50;;
75499;SDS011;64076;51.466;7.260;2022-11-20T14:48:53;8.80;;;6.25;;
75499;SDS011;64076;51.466;7.260;2022-11-20T14:53:53;8.43;;;5.97;;
75499;SDS011;64076;51.466;7.260;2022-11-20T14:56:24;9.80;;;6.70;;
75499;SDS011;64076;51.466;7.260;2022-11-20T14:58:56;8.13;;;6.53;;
75499;SDS011;64076;51.466;7.260;2022-11-20T15:01:26;8.00;;;6.67;;
75499;SDS011;64076;51.466;7.260;2022-11-20T15:04:26;8.95;;;7.10;;
75499;SDS011;64076;51.466;7.260;2022-11-20T15:06:49;8.00;;;6.28;;
75499;SDS011;64076;51.466;7.260;2022-11-20T15:09:16;9.60;;;6.85;;
75499;SDS011;64076;51.466;7.260;2022-11-20T15:11:50;7.67;;;6.37;;
75499;SDS011;64076;51.466;7.260;2022-11-20T15:14:24;7.65;;;6.55;;
75499;SDS011;64076;51.466;7.260;2022-11-20T15:16:51;8.82;;;6.70;;
75499;SDS011;64076;51.466;7.260;2022-11-20T15:19:18;8.13;;;6.32;;
75499;SDS011;64076;51.466;7.260;2022-11-20T15:21:45;9.80;;;6.80;;
75499;SDS011;64076;51.466;7.260;2022-11-20T15:24:11;8.93;;;7.18;;
75499;SDS011;64076;51.466;7.260;2022-11-20T15:26:36;7.57;;;6.10;;
75499;SDS011;64076;51.466;7.260;2022-11-20T15:29:13;8.95;;;6.82;;
75499;SDS011;64076;51.466;7.260;2022-11-20T15:31:45;9.25;;;6.97;;
75499;SDS011;64076;51.466;7.260;2022-11-20T15:34:11;9.30;;;7.07;;
75499;SDS011;64076;51.466;7.260;2022-11-20T15:36:38;10.32;;;6.88;;
75499;SDS011;64076;51.466;7.260;2022-11-20T15:39:04;9.80;;;6.78;;
75499;SDS011;64076;51.466;7.260;2022-11-20T15:41:32;9.10;;;6.82;;
75499;SDS011;64076;51.466;7.260;2022-11-20T15:44:01;8.30;;;6.43;;
75499;SDS011;64076;51.466;7.260;2022-11-20T15:46:28;10.48;;;7.15;;
75499;SDS011;64076;51.466;7.260;2022-11-20T15:48:58;9.25;;;6.75;;
75499;SDS011;64076;51.466;7.260;2022-11-20T15:51:33;8.48;;;6.72;;
75499;SDS011;64076;51.466;7.260;2022-11-20T15:54:00;8.90;;;6.80;;
75499;SDS011;64076;51.466;7.260;2022-11-20T15:56:26;10.20;;;7.07;;
75499;SDS011;64076;51.466;7.260;2022-11-20T15:58:52;9.10;;;6.80;;
75499;SDS011;64076;51.466;7.260;2022-11-20T16:01:18;8.73;;;6.77;;
75499;SDS011;64076;51.466;7.260;2022-11-20T16:03:46;9.85;;;7.65;;
75499;SDS011;64076;51.466;7.260;2022-11-20T16:06:12;9.95;;;6.88;;
75499;SDS011;64076;51.466;7.260;2022-11-20T16:08:38;8.40;;;6.87;;
75499;SDS011;64076;51.466;7.260;2022-11-20T16:11:03;10.00;;;6.68;;
75499;SDS011;64076;51.466;7.260;2022-11-20T16:13:30;10.77;;;7.67;;
75499;SDS011;64076;51.466;7.260;2022-11-20T16:16:28;9.68;;;7.32;;
75499;SDS011;64076;51.466;7.260;2022-11-20T16:19:00;11.07;;;7.80;;
75499;SDS011;64076;51.466;7.260;2022-11-20T16:21:26;11.07;;;7.13;;
75499;SDS011;64076;51.466;7.260;2022-11-20T16:24:03;10.25;;;7.60;;